Time;durP1;ratioP1;P1;durP2;ratioP2;P2;SDS_P1;SDS_P2;PMS_P1;PMS_P2;Temp;Humidity;BMP_temperature;BMP_pressure;BME280_temperature;BME280_humidity;BME280_pressure;Samples;Min_cycle;Max_cycle;Signal;HPM_P1;HPM_P2
2022/01/21 00:01:12;;;;;;;9.45;2.20;;;3.70;82.30;;;;;;5127778;27;20035;-68
2022/01/21 00:03:38;;;;;;;14.10;2.78;;;3.70;82.40;;;;;;5129550;27;20534;-67
2022/01/21 00:06:08;;;;;;;15.43;1.80;;;3.80;82.50;;;;;;5129688;27;20074;-67
2022/01/21 00:08:34;;;;;;;12.10;1.98;;;3.90;82.50;;;;;;5129425;27;20103;-67
2022/01/21 00:11:00;;;;;;;19.15;3.67;;;3.90;82.50;;;;;;5129419;27;20039;-67
2022/01/21 00:13:36;;;;;;;17.50;3.83;;;3.90;82.60;;;;;;5130579;27;20443;-67
2022/01/21 00:16:07;;;;;;;16.30;2.13;;;3.80;82.50;;;;;;5128783;27;20384;-67
2022/01/21 00:18:36;;;;;;;;;;;3.80;82.60;;;;;;5130847;27;20150;-67
2022/01/21 00:31:59;;;;;;;11.57;2.60;;;3.50;83.90;;;;;;5129513;27;20483;-67
2022/01/21 00:34:25;;;;;;;7.57;1.95;;;3.50;83.90;;;;;;5129496;27;20099;-67
2022/01/21 00:36:51;;;;;;;17.08;2.05;;;3.50;84.00;;;;;;5124202;27;20389;-67
2022/01/21 00:39:21;;;;;;;13.85;2.10;;;3.50;84.10;;;;;;5114416;27;20042;-67
2022/01/21 00:42:08;;;;;;;15.13;2.15;;;3.50;84.20;;;;;;5128212;27;20048;-67
2022/01/21 00:44:34;;;;;;;13.00;3.58;;;3.50;84.20;;;;;;5094072;27;20043;-67
2022/01/21 00:46:59;;;;;;;7.32;1.90;;;3.50;84.20;;;;;;5130243;27;20054;-67
2022/01/21 00:49:25;;;;;;;5.07;1.50;;;3.40;84.60;;;;;;5128448;27;20062;-67
2022/01/21 00:51:51;;;;;;;9.80;1.65;;;3.40;84.50;;;;;;5129292;28;20050;-67
2022/01/21 00:54:16;;;;;;;18.92;2.90;;;3.40;84.50;;;;;;5094371;28;20119;-67
2022/01/21 00:56:43;;;;;;;10.63;1.90;;;3.40;84.70;;;;;;5130193;28;20043;-67
2022/01/21 00:59:08;;;;;;;7.45;1.90;;;3.40;84.70;;;;;;5129149;27;20072;-67
2022/01/21 01:01:34;;;;;;;14.73;1.80;;;3.40;84.70;;;;;;5129376;28;20126;-67
2022/01/21 01:04:00;;;;;;;5.85;1.88;;;3.50;84.70;;;;;;5129467;28;20506;-67
2022/01/21 01:06:26;;;;;;;13.07;2.33;;;3.40;85.00;;;;;;5129914;27;20051;-66
2022/01/21 01:08:53;;;;;;;16.55;2.42;;;3.50;85.30;;;;;;5128836;28;20553;-67
2022/01/21 01:22:21;;;;;;;13.88;2.70;;;3.40;85.60;;;;;;5115027;27;20054;-67
2022/01/21 01:30:01;;;;;;;15.82;2.90;;;3.50;85.60;;;;;;5133216;27;20047;-67
2022/01/21 01:32:28;;;;;;;13.88;2.63;;;3.50;86.00;;;;;;5132254;27;20031;-67
2022/01/21 01:34:54;;;;;;;13.88;2.50;;;3.50;85.90;;;;;;5132242;27;20047;-68
2022/01/21 01:37:42;;;;;;;13.52;2.03;;;3.50;85.90;;;;;;5132866;27;20035;-67
2022/01/21 01:40:28;;;;;;;14.32;2.60;;;3.60;85.80;;;;;;5126125;27;20039;-67
2022/01/21 01:51:12;;;;;;;15.50;3.25;;;3.50;85.80;;;;;;5132841;27;20047;-67
2022/01/21 01:53:50;;;;;;;15.32;2.22;;;3.50;86.00;;;;;;5132795;27;20070;-67
2022/01/21 01:56:20;;;;;;;9.05;2.35;;;3.40;86.30;;;;;;5133269;27;20043;-67
2022/01/21 01:58:45;;;;;;;9.68;2.53;;;3.50;86.20;;;;;;5132763;27;20066;-67
2022/01/21 02:01:11;;;;;;;10.20;2.72;;;3.50;86.40;;;;;;5130893;27;20511;-67
2022/01/21 02:03:37;;;;;;;8.05;2.25;;;3.50;86.60;;;;;;5133130;27;20120;-67
2022/01/21 02:06:04;;;;;;;15.15;3.45;;;3.50;86.50;;;;;;5132434;27;20054;-67
2022/01/21 02:08:33;;;;;;;10.05;4.20;;;3.50;86.60;;;;;;5132543;27;20514;-67
2022/01/21 02:10:59;;;;;;;14.95;2.60;;;3.50;86.70;;;;;;5132190;27;20141;-67
2022/01/21 02:13:28;;;;;;;15.55;2.53;;;3.60;86.70;;;;;;5113540;27;20415;-67
2022/01/21 02:21:46;;;;;;;16.20;2.92;;;3.60;87.10;;;;;;5131930;27;20704;-67
2022/01/21 02:24:23;;;;;;;17.00;4.38;;;3.60;87.10;;;;;;5112733;27;20047;-67
2022/01/21 02:26:51;;;;;;;16.23;3.40;;;3.70;86.90;;;;;;5132611;27;20088;-67
2022/01/21 02:29:32;;;;;;;11.65;2.70;;;3.70;87.10;;;;;;5131801;27;20035;-68
2022/01/21 02:32:00;;;;;;;10.27;2.58;;;3.70;87.20;;;;;;5132190;27;20117;-68
2022/01/21 02:34:27;;;;;;;15.02;2.50;;;3.80;86.80;;;;;;5132245;27;20110;-69
2022/01/21 02:36:53;;;;;;;12.40;2.75;;;3.90;86.80;;;;;;5131897;27;20075;-67
2022/01/21 02:39:18;;;;;;;6.80;2.08;;;3.90;86.40;;;;;;5131778;27;20411;-67
2022/01/21 02:41:44;;;;;;;12.57;2.22;;;3.90;86.50;;;;;;5132029;27;20039;-67
2022/01/21 02:44:14;;;;;;;13.75;2.10;;;3.80;86.80;;;;;;5131585;27;20036;-67
2022/01/21 02:46:41;;;;;;;6.53;2.50;;;3.80;86.80;;;;;;5131192;27;20043;-68
2022/01/21 02:49:09;;;;;;;9.25;2.28;;;3.80;86.50;;;;;;5132088;27;20112;-67
2022/01/21 02:51:35;;;;;;;8.40;1.70;;;3.80;86.30;;;;;;5129819;27;20043;-67
2022/01/21 02:54:04;;;;;;;4.65;1.20;;;3.70;86.30;;;;;;5130767;27;20051;-67
2022/01/21 02:56:34;;;;;;;5.18;2.00;;;3.70;86.20;;;;;;5113655;27;20561;-67
2022/01/21 02:59:00;;;;;;;7.40;1.65;;;3.70;86.20;;;;;;5131483;27;20059;-68
2022/01/21 03:01:26;;;;;;;4.68;1.55;;;3.70;86.00;;;;;;5131467;27;20054;-68
2022/01/21 03:03:54;;;;;;;8.38;1.85;;;3.60;86.30;;;;;;5131450;27;20036;-68
2022/01/21 03:06:22;;;;;;;13.05;3.28;;;3.60;86.20;;;;;;5131309;27;20043;-68
2022/01/21 03:08:49;;;;;;;4.80;1.75;;;3.60;86.10;;;;;;5131461;27;20043;-68
2022/01/21 03:11:15;;;;;;;5.97;1.75;;;3.60;86.10;;;;;;5131759;27;20051;-68
2022/01/21 03:13:41;;;;;;;5.07;1.38;;;3.60;86.00;;;;;;5131511;27;20059;-68
2022/01/21 03:16:07;;;;;;;6.53;1.67;;;3.50;86.10;;;;;;5131224;27;20043;-67
2022/01/21 03:18:33;;;;;;;10.95;2.53;;;3.50;86.20;;;;;;5113098;27;20046;-67
2022/01/21 03:20:59;;;;;;;12.85;1.90;;;3.40;86.30;;;;;;5112704;27;20051;-67
2022/01/21 03:23:27;;;;;;;18.33;3.83;;;3.50;86.50;;;;;;5113376;27;20046;-68
2022/01/21 03:25:53;;;;;;;14.95;2.80;;;3.40;86.70;;;;;;5131101;27;20128;-69
2022/01/21 03:28:18;;;;;;;6.60;1.80;;;3.30;86.90;;;;;;5131410;27;20441;-67
2022/01/21 03:30:44;;;;;;;10.25;1.90;;;3.30;86.80;;;;;;5130412;27;20043;-68
2022/01/21 03:33:10;;;;;;;9.73;1.85;;;3.20;87.10;;;;;;5130020;27;20487;-68
2022/01/21 03:35:35;;;;;;;14.48;2.15;;;3.30;87.00;;;;;;5130193;27;20091;-68
2022/01/21 03:38:01;;;;;;;8.88;1.73;;;3.30;87.00;;;;;;5129039;27;20091;-68
2022/01/21 03:40:27;;;;;;;20.48;2.50;;;3.30;87.00;;;;;;5130944;27;20107;-68
2022/01/21 03:42:52;;;;;;;8.25;2.10;;;3.20;87.20;;;;;;5111248;27;20449;-68
2022/01/21 03:45:18;;;;;;;12.73;3.13;;;3.30;87.10;;;;;;5130972;27;20050;-68
2022/01/21 03:47:44;;;;;;;15.05;1.92;;;3.30;87.10;;;;;;5130066;27;20046;-68
2022/01/21 03:50:24;;;;;;;15.00;2.38;;;3.30;87.00;;;;;;5130662;27;20081;-67
2022/01/21 03:52:51;;;;;;;11.07;1.98;;;3.30;86.80;;;;;;5129689;27;20039;-68
2022/01/21 03:55:17;;;;;;;18.00;2.38;;;3.30;86.90;;;;;;5130756;27;20047;-68
2022/01/21 03:57:43;;;;;;;11.10;2.55;;;3.30;86.80;;;;;;5111974;27;20510;-68
2022/01/21 04:00:16;;;;;;;9.63;2.10;;;3.30;86.60;;;;;;5131123;27;20043;-68
2022/01/21 04:02:43;;;;;;;6.68;1.73;;;3.30;86.70;;;;;;5142618;27;20035;-67
2022/01/21 04:05:09;;;;;;;14.40;3.60;;;3.20;86.50;;;;;;5134814;27;20074;-67
2022/01/21 04:07:34;;;;;;;12.27;2.60;;;3.30;86.40;;;;;;5127308;27;20135;-67
2022/01/21 04:10:00;;;;;;;12.27;1.80;;;3.20;86.30;;;;;;5127695;27;20071;-67
2022/01/21 04:12:26;;;;;;;9.48;1.85;;;3.10;86.30;;;;;;5130019;27;20046;-67
2022/01/21 04:14:51;;;;;;;7.95;2.17;;;3.10;86.30;;;;;;5130072;27;20039;-67
2022/01/21 04:17:18;;;;;;;11.65;2.13;;;3.10;86.40;;;;;;5120861;27;20511;-67
2022/01/21 04:19:44;;;;;;;8.88;1.95;;;3.10;86.50;;;;;;5101439;27;20039;-67
2022/01/21 04:22:09;;;;;;;10.77;2.13;;;3.10;86.60;;;;;;5093084;28;20089;-68
2022/01/21 04:24:36;;;;;;;9.10;2.05;;;3.10;86.70;;;;;;5114673;27;20078;-67
2022/01/21 04:27:02;;;;;;;16.42;1.98;;;3.10;86.70;;;;;;5109318;27;20477;-67
2022/01/21 04:29:28;;;;;;;7.47;2.05;;;3.10;86.70;;;;;;5113147;27;20129;-68
2022/01/21 04:31:53;;;;;;;14.38;2.15;;;3.10;86.80;;;;;;5109969;27;20670;-67
2022/01/21 04:34:19;;;;;;;8.85;2.22;;;3.10;86.80;;;;;;5117880;27;20047;-67
2022/01/21 04:36:45;;;;;;;15.07;3.17;;;3.10;87.00;;;;;;5124311;27;20483;-67
2022/01/21 04:39:17;;;;;;;17.20;4.50;;;3.10;86.90;;;;;;5116605;27;20126;-67
2022/01/21 04:49:40;;;;;;;15.48;2.38;;;3.30;87.50;;;;;;5108980;28;20050;-67
2022/01/21 04:52:06;;;;;;;9.50;3.03;;;3.40;87.70;;;;;;5122770;28;20039;-67
2022/01/21 04:54:35;;;;;;;12.05;2.40;;;3.40;87.90;;;;;;5121996;28;20039;-67
2022/01/21 04:57:03;;;;;;;8.35;2.28;;;3.40;87.90;;;;;;5127512;28;20039;-67
2022/01/21 04:59:29;;;;;;;11.18;2.05;;;3.50;87.70;;;;;;5126666;28;20052;-67
2022/01/21 05:01:55;;;;;;;5.43;2.08;;;3.50;87.60;;;;;;5124423;28;20050;-67
2022/01/21 05:04:21;;;;;;;9.05;1.98;;;3.60;87.60;;;;;;5106208;28;20500;-67
2022/01/21 05:06:49;;;;;;;6.22;1.70;;;3.60;87.50;;;;;;5123079;28;20396;-67
2022/01/21 05:09:16;;;;;;;9.45;1.92;;;3.60;87.60;;;;;;5118376;28;20082;-67
2022/01/21 05:11:43;;;;;;;13.68;1.92;;;3.60;87.70;;;;;;5122010;28;20050;-67
2022/01/21 05:14:20;;;;;;;6.57;1.88;;;3.60;87.60;;;;;;5129368;27;20176;-67
2022/01/21 05:16:47;;;;;;;8.38;2.80;;;3.60;87.70;;;;;;5129075;28;20058;-67
2022/01/21 05:19:16;;;;;;;8.02;2.00;;;3.60;87.50;;;;;;5126553;28;20126;-66
2022/01/21 05:21:51;;;;;;;10.52;2.05;;;3.60;87.40;;;;;;5108291;28;20392;-67
2022/01/21 05:24:20;;;;;;;13.63;3.13;;;3.50;87.50;;;;;;5106499;28;20369;-67
2022/01/21 05:26:53;;;;;;;9.50;1.80;;;3.50;87.60;;;;;;5117201;28;20069;-69
2022/01/21 05:29:20;;;;;;;4.10;1.88;;;3.50;87.40;;;;;;5094766;28;20556;-66
2022/01/21 05:31:46;;;;;;;11.10;1.90;;;3.50;87.70;;;;;;5129038;28;20031;-65
2022/01/21 05:34:12;;;;;;;43.65;5.10;;;3.50;87.60;;;;;;5128150;28;20099;-67
2022/01/21 05:36:40;;;;;;;11.93;1.90;;;3.50;87.70;;;;;;5110999;28;20047;-66
2022/01/21 05:39:07;;;;;;;11.30;2.20;;;3.50;87.60;;;;;;5117386;28;20110;-66
2022/01/21 05:41:33;;;;;;;10.07;3.75;;;3.60;87.60;;;;;;5108825;28;20043;-66
2022/01/21 05:44:06;;;;;;;6.68;1.52;;;3.60;87.60;;;;;;5099585;28;20164;-67
2022/01/21 05:48:57;;;;;;;11.80;2.10;;;3.70;87.50;;;;;;5115256;28;20043;-66
2022/01/21 05:51:24;;;;;;;8.85;2.20;;;3.70;87.70;;;;;;5116227;28;20741;-66
2022/01/21 05:53:50;;;;;;;6.28;2.00;;;3.70;88.00;;;;;;5115135;28;20044;-67
2022/01/21 05:56:15;;;;;;;13.05;2.17;;;3.70;88.00;;;;;;5123950;28;20039;-66
2022/01/21 05:58:41;;;;;;;5.07;2.22;;;3.70;87.80;;;;;;5117787;28;20174;-66
2022/01/21 06:01:07;;;;;;;17.27;3.95;;;3.80;87.60;;;;;;5094236;28;20044;-67
2022/01/21 06:03:33;;;;;;;10.75;2.40;;;3.70;87.50;;;;;;5121427;28;20039;-66
2022/01/21 06:05:59;;;;;;;15.82;2.53;;;3.70;87.50;;;;;;5107219;27;20050;-66
2022/01/21 06:08:25;;;;;;;10.43;2.72;;;3.70;87.60;;;;;;5123474;27;20389;-66
2022/01/21 06:10:51;;;;;;;20.23;3.90;;;3.70;87.60;;;;;;5122880;27;20118;-66
2022/01/21 06:13:18;;;;;;;20.38;3.58;;;3.60;87.60;;;;;;5124349;27;20095;-67
2022/01/21 06:15:45;;;;;;;6.60;2.08;;;3.60;87.60;;;;;;5128844;27;20039;-67
2022/01/21 06:18:11;;;;;;;14.05;2.17;;;3.60;87.50;;;;;;5124928;27;20095;-67
2022/01/21 06:20:37;;;;;;;13.88;2.20;;;3.60;87.30;;;;;;5117499;27;20039;-67
2022/01/21 06:23:04;;;;;;;4.80;1.58;;;3.60;87.10;;;;;;5132126;27;20031;-67
2022/01/21 06:25:29;;;;;;;13.77;3.05;;;3.60;87.00;;;;;;5131637;27;20088;-66
2022/01/21 06:27:55;;;;;;;16.65;2.67;;;3.60;86.80;;;;;;5114652;27;20043;-66
2022/01/21 06:30:21;;;;;;;17.77;4.45;;;3.60;86.80;;;;;;5132083;27;20069;-66
2022/01/21 06:32:46;;;;;;;10.25;2.17;;;3.60;87.00;;;;;;5113880;27;20601;-66
2022/01/21 06:35:12;;;;;;;15.68;2.60;;;3.60;87.10;;;;;;5127139;27;20553;-65
2022/01/21 06:37:39;;;;;;;19.58;3.40;;;3.70;87.20;;;;;;5130332;27;20042;-69
2022/01/21 06:40:07;;;;;;;12.90;2.47;;;3.70;87.30;;;;;;5128019;27;20110;-66
2022/01/21 06:42:33;;;;;;;13.68;2.78;;;3.70;87.20;;;;;;5131796;27;20031;-67
2022/01/21 06:45:00;;;;;;;26.08;5.90;;;3.70;87.20;;;;;;5132145;27;20039;-66
2022/01/21 06:47:27;;;;;;;10.43;2.60;;;3.70;87.20;;;;;;5113586;27;20051;-66
2022/01/21 06:49:54;;;;;;;19.85;3.03;;;3.70;87.30;;;;;;5129264;27;20124;-66
2022/01/21 06:52:21;;;;;;;21.65;3.08;;;3.70;87.30;;;;;;5130366;27;20073;-67
2022/01/21 06:54:47;;;;;;;16.33;2.70;;;3.70;87.40;;;;;;5111926;27;20035;-67
2022/01/21 06:57:14;;;;;;;17.90;2.97;;;3.70;87.50;;;;;;5131742;27;20074;-67
2022/01/21 06:59:40;;;;;;;12.95;2.60;;;3.70;87.50;;;;;;5131273;27;20039;-67
2022/01/21 07:02:05;;;;;;;16.80;2.90;;;3.80;87.50;;;;;;5129855;27;20453;-67
2022/01/21 07:04:31;;;;;;;17.85;3.05;;;3.80;87.50;;;;;;5130104;27;20118;-67
2022/01/21 07:06:58;;;;;;;16.98;3.13;;;3.70;87.50;;;;;;5107634;28;20468;-67
2022/01/21 07:09:25;;;;;;;18.85;5.57;;;3.80;87.40;;;;;;5110428;27;20043;-67
2022/01/21 07:11:50;;;;;;;17.00;3.53;;;3.80;87.40;;;;;;5129087;27;20040;-67
2022/01/21 07:14:16;;;;;;;16.65;4.57;;;3.80;87.30;;;;;;5111974;27;20054;-67
2022/01/21 07:16:42;;;;;;;15.10;2.83;;;3.80;87.60;;;;;;5110969;27;20724;-69
2022/01/21 07:19:08;;;;;;;11.35;2.35;;;4.10;88.10;;;;;;5109859;27;20111;-68
2022/01/21 07:21:33;;;;;;;21.48;2.80;;;4.20;87.50;;;;;;5128570;27;20646;-68
2022/01/21 07:23:59;;;;;;;14.68;2.33;;;4.10;86.60;;;;;;5093849;27;20031;-68
2022/01/21 07:26:26;;;;;;;10.00;2.08;;;3.90;86.90;;;;;;5125793;27;20035;-69
2022/01/21 07:28:51;;;;;;;8.30;1.90;;;4.10;87.10;;;;;;5124886;27;20100;-68
2022/01/21 07:31:17;;;;;;;16.15;3.67;;;4.00;86.80;;;;;;5130276;27;20039;-68
2022/01/21 07:33:43;;;;;;;15.23;2.53;;;4.00;86.80;;;;;;5130272;27;20043;-68
2022/01/21 07:36:08;;;;;;;13.75;2.30;;;3.90;87.10;;;;;;5111362;27;20039;-68
2022/01/21 07:38:34;;;;;;;15.10;2.95;;;3.90;87.30;;;;;;5128662;27;20047;-68
2022/01/21 07:41:00;;;;;;;16.35;3.38;;;3.90;87.30;;;;;;5111505;27;20038;-68
2022/01/21 07:43:26;;;;;;;13.65;2.47;;;3.80;87.40;;;;;;5130358;27;20070;-68
2022/01/21 07:45:51;;;;;;;20.00;3.25;;;3.70;87.70;;;;;;5128494;27;20411;-68
2022/01/21 07:48:17;;;;;;;12.85;2.80;;;3.60;87.90;;;;;;5111485;27;20126;-68
2022/01/21 07:50:42;;;;;;;16.90;3.60;;;3.70;88.00;;;;;;5108443;27;20085;-68
2022/01/21 07:53:08;;;;;;;12.52;2.50;;;3.70;88.00;;;;;;5125204;27;20043;-66
2022/01/21 07:55:34;;;;;;;22.30;3.10;;;3.70;88.50;;;;;;5126826;27;20059;-66
2022/01/21 07:58:00;;;;;;;14.05;2.70;;;3.60;88.80;;;;;;5126042;27;20768;-66
2022/01/21 08:00:26;;;;;;;15.27;3.63;;;3.70;88.90;;;;;;5127183;27;20031;-66
2022/01/21 08:02:52;;;;;;;18.10;3.58;;;3.70;89.20;;;;;;5126695;27;20035;-65
2022/01/21 08:05:18;;;;;;;23.92;3.22;;;3.90;89.30;;;;;;5128669;27;20043;-66
2022/01/21 08:07:43;;;;;;;15.35;3.47;;;4.00;89.30;;;;;;5124627;27;20035;-66
2022/01/21 08:10:09;;;;;;;14.00;3.25;;;4.20;89.30;;;;;;5127764;27;20481;-65
2022/01/21 08:12:35;;;;;;;9.02;3.03;;;4.30;89.10;;;;;;5128593;27;20469;-65
2022/01/21 08:15:01;;;;;;;15.13;2.95;;;4.40;89.00;;;;;;5128636;27;20122;-65
2022/01/21 08:17:29;;;;;;;16.20;3.35;;;4.50;88.60;;;;;;5122520;27;20043;-66
2022/01/21 08:19:57;;;;;;;11.93;2.85;;;4.60;89.00;;;;;;5104353;27;20136;-65
2022/01/21 08:22:23;;;;;;;24.73;4.18;;;4.60;89.00;;;;;;5123897;27;20043;-66
2022/01/21 08:24:48;;;;;;;18.35;2.92;;;4.60;89.50;;;;;;5130060;27;20042;-65
2022/01/21 08:27:14;;;;;;;19.02;3.83;;;4.60;89.30;;;;;;5127391;27;20039;-65
2022/01/21 08:29:40;;;;;;;13.88;2.75;;;4.60;89.20;;;;;;5129286;27;20043;-65
2022/01/21 08:32:07;;;;;;;23.27;4.07;;;4.60;89.40;;;;;;5129546;27;20431;-66
2022/01/21 08:34:34;;;;;;;16.80;2.88;;;4.70;89.30;;;;;;5129886;27;20049;-66
2022/01/21 08:37:02;;;;;;;19.10;2.78;;;4.70;89.20;;;;;;5129128;27;20039;-66
2022/01/21 08:39:28;;;;;;;16.75;3.00;;;4.60;89.50;;;;;;5106621;27;20047;-67
2022/01/21 08:41:54;;;;;;;21.45;3.17;;;4.60;89.40;;;;;;5127930;27;20096;-66
2022/01/21 08:44:19;;;;;;;21.10;3.03;;;4.60;89.40;;;;;;5127180;27;20066;-65
2022/01/21 08:46:45;;;;;;;16.65;3.40;;;4.50;89.40;;;;;;5110486;28;20115;-66
2022/01/21 08:49:11;;;;;;;19.10;3.90;;;4.50;89.30;;;;;;5122776;27;20039;-66
2022/01/21 08:51:48;;;;;;;20.92;3.05;;;4.40;89.40;;;;;;5127188;27;20540;-66
2022/01/21 08:54:15;;;;;;;19.38;3.13;;;4.40;89.30;;;;;;5126887;28;20115;-66
2022/01/21 08:56:41;;;;;;;13.93;3.63;;;4.30;89.40;;;;;;5128051;28;20039;-66
2022/01/21 08:59:07;;;;;;;17.48;2.90;;;4.30;89.60;;;;;;5108429;28;20122;-65
2022/01/21 09:01:32;;;;;;;20.10;3.10;;;4.30;89.70;;;;;;5125515;28;20121;-65
2022/01/21 09:03:58;;;;;;;13.73;3.25;;;4.40;89.60;;;;;;5126987;28;20047;-66
2022/01/21 09:06:28;;;;;;;14.68;3.53;;;4.40;89.90;;;;;;5128340;27;20499;-66
2022/01/21 09:08:54;;;;;;;21.17;5.63;;;4.40;89.70;;;;;;5128643;28;20043;-62
2022/01/21 09:11:20;;;;;;;24.55;5.72;;;4.50;89.60;;;;;;5120524;28;20077;-63
2022/01/21 09:13:46;;;;;;;17.63;4.03;;;4.50;89.80;;;;;;5126090;28;20082;-65
2022/01/21 09:16:12;;;;;;;20.73;4.57;;;4.60;89.70;;;;;;5125648;28;20055;-66
2022/01/21 09:18:51;;;;;;;16.38;3.10;;;4.80;89.80;;;;;;5108458;28;20544;-66
2022/01/21 09:21:20;;;;;;;18.77;3.38;;;4.80;89.70;;;;;;5126934;28;20039;-65
2022/01/21 09:23:48;;;;;;;22.13;3.33;;;5.00;90.10;;;;;;5125273;28;20043;-65
2022/01/21 09:26:18;;;;;;;15.68;2.80;;;5.10;90.30;;;;;;5106931;28;21884;-66
2022/01/21 09:28:44;;;;;;;22.58;3.33;;;5.20;90.00;;;;;;5124705;28;20027;-66
2022/01/21 09:31:10;;;;;;;16.90;3.25;;;5.40;90.40;;;;;;5124173;28;20046;-66
2022/01/21 09:33:37;;;;;;;18.27;4.25;;;5.40;90.20;;;;;;5126369;28;20093;-66
2022/01/21 09:36:03;;;;;;;13.85;2.90;;;5.60;90.00;;;;;;5124988;28;20092;-66
2022/01/21 09:38:29;;;;;;;14.82;3.15;;;5.60;90.10;;;;;;5124086;28;20043;-66
2022/01/21 09:40:55;;;;;;;16.83;3.38;;;5.80;89.70;;;;;;5125047;27;20074;-66
2022/01/21 09:43:22;;;;;;;22.70;4.50;;;5.80;89.80;;;;;;5111104;27;20039;-65
2022/01/21 09:45:52;;;;;;;20.67;3.17;;;5.90;89.60;;;;;;5130278;27;20051;-64
2022/01/21 09:48:26;;;;;;;15.57;3.42;;;5.90;89.60;;;;;;5079864;27;20039;-66
2022/01/21 09:50:54;;;;;;;21.13;2.97;;;6.10;89.50;;;;;;5130516;27;20138;-65
2022/01/21 09:53:35;;;;;;;19.25;3.15;;;6.20;89.30;;;;;;5130408;27;20114;-65
2022/01/21 09:56:03;;;;;;;20.23;3.47;;;6.40;88.90;;;;;;5128157;27;20495;-66
2022/01/21 09:58:29;;;;;;;13.63;3.03;;;6.40;88.80;;;;;;5129080;27;20406;-66
2022/01/21 10:01:01;;;;;;;19.63;3.90;;;6.50;88.80;;;;;;5127018;27;20035;-67
2022/01/21 10:03:27;;;;;;;18.33;2.88;;;6.40;88.70;;;;;;5132383;27;20070;-66
2022/01/21 10:05:54;;;;;;;16.33;3.28;;;6.40;88.70;;;;;;5131813;27;20081;-67
2022/01/21 10:08:23;;;;;;;10.55;2.72;;;6.40;88.70;;;;;;5129912;27;20616;-67
2022/01/21 10:10:50;;;;;;;17.75;2.97;;;6.50;88.80;;;;;;5131523;27;20039;-66
2022/01/21 10:13:17;;;;;;;12.43;2.72;;;6.60;88.90;;;;;;5124033;27;20130;-67
2022/01/21 10:15:44;;;;;;;25.88;3.88;;;6.60;89.00;;;;;;5113018;27;20564;-66
2022/01/21 10:18:18;;;;;;;19.10;2.50;;;6.60;88.70;;;;;;5129255;27;20088;-66
2022/01/21 10:21:13;;;;;;;17.25;4.40;;;6.60;88.60;;;;;;5130492;27;20036;-67
2022/01/21 10:23:42;;;;;;;12.25;2.75;;;6.70;88.60;;;;;;5123736;27;20078;-66
2022/01/21 10:26:16;;;;;;;18.48;3.47;;;6.60;88.70;;;;;;5144343;27;20051;-65
2022/01/21 10:28:44;;;;;;;19.52;5.35;;;6.60;89.00;;;;;;5130333;27;20091;-66
2022/01/21 10:31:16;;;;;;;16.27;4.20;;;6.60;88.80;;;;;;5114321;27;20051;-66
2022/01/21 10:33:54;;;;;;;13.05;3.33;;;6.60;88.90;;;;;;5118158;27;20052;-67
2022/01/21 10:36:32;;;;;;;13.07;3.00;;;6.60;89.00;;;;;;5110534;27;20051;-66
2022/01/21 10:39:17;;;;;;;21.88;4.05;;;6.60;88.90;;;;;;5121493;27;20554;-66
2022/01/21 10:41:47;;;;;;;17.00;2.75;;;6.60;89.40;;;;;;5111567;28;20437;-67
2022/01/21 10:44:19;;;;;;;12.35;3.05;;;6.60;89.20;;;;;;5127112;27;20118;-67
2022/01/21 10:47:11;;;;;;;17.10;3.08;;;6.80;89.10;;;;;;5129606;27;20063;-67
2022/01/21 10:49:43;;;;;;;19.67;4.43;;;6.90;89.00;;;;;;5126985;27;20047;-66
2022/01/21 10:52:11;;;;;;;17.38;3.13;;;6.90;88.70;;;;;;5127182;27;20084;-67
2022/01/21 10:54:44;;;;;;;25.10;3.22;;;6.90;88.70;;;;;;5113383;27;20385;-66
2022/01/21 10:57:15;;;;;;;15.40;3.20;;;7.00;88.70;;;;;;5127261;27;20109;-67
2022/01/21 10:59:54;;;;;;;20.08;2.78;;;6.90;88.60;;;;;;5130128;27;20043;-66
2022/01/21 11:02:47;;;;;;;16.10;2.95;;;6.90;88.50;;;;;;5132303;27;20075;-67
2022/01/21 11:05:26;;;;;;;18.05;2.83;;;7.10;88.00;;;;;;5129972;27;20051;-67
2022/01/21 11:07:58;;;;;;;21.73;2.78;;;7.10;87.90;;;;;;5104974;27;20111;-66
2022/01/21 11:10:36;;;;;;;14.65;3.40;;;7.10;88.10;;;;;;5112599;27;20058;-67
2022/01/21 11:13:01;;;;;;;24.33;3.33;;;7.10;88.00;;;;;;5130872;27;20531;-67
2022/01/21 11:15:38;;;;;;;15.95;3.45;;;7.00;88.00;;;;;;5131125;27;20040;-67
2022/01/21 11:18:06;;;;;;;17.15;2.78;;;7.10;87.80;;;;;;5128594;27;20041;-67
2022/01/21 11:20:36;;;;;;;10.93;3.03;;;7.00;87.90;;;;;;5131010;27;20053;-67
2022/01/21 11:23:01;;;;;;;14.43;3.13;;;7.10;87.80;;;;;;5129799;27;20035;-67
2022/01/21 11:25:51;;;;;;;18.65;3.03;;;7.10;87.90;;;;;;5129945;27;20053;-66
2022/01/21 11:28:24;;;;;;;15.10;3.33;;;7.20;87.80;;;;;;5129528;27;20031;-66
2022/01/21 11:30:52;;;;;;;12.75;3.05;;;7.10;87.80;;;;;;5095561;27;20043;-66
2022/01/21 11:33:18;;;;;;;14.10;3.40;;;7.10;87.70;;;;;;5129091;27;20031;-66
2022/01/21 11:35:47;;;;;;;14.32;4.00;;;7.10;87.80;;;;;;5129939;27;20051;-67
2022/01/21 11:38:14;;;;;;;19.60;3.70;;;7.20;87.70;;;;;;5109873;27;21810;-66
2022/01/21 11:40:40;;;;;;;10.85;3.25;;;7.20;87.70;;;;;;5130018;27;20403;-66
2022/01/21 11:43:09;;;;;;;22.50;4.47;;;7.20;87.60;;;;;;5129981;27;20035;-66
2022/01/21 11:50:41;;;;;;;13.57;3.28;;;7.20;87.70;;;;;;5128086;27;20051;-67
2022/01/21 11:53:06;;;;;;;14.10;4.18;;;7.20;87.80;;;;;;5130426;27;20039;-68
2022/01/21 11:55:37;;;;;;;23.15;5.78;;;7.10;87.70;;;;;;5128276;27;20035;-67
2022/01/21 11:58:20;;;;;;;16.85;3.80;;;7.20;87.60;;;;;;5129746;27;20071;-67
2022/01/21 12:00:50;;;;;;;17.77;3.30;;;7.20;87.70;;;;;;5129703;27;20168;-67
2022/01/21 12:03:22;;;;;;;22.80;4.40;;;7.20;87.80;;;;;;5127465;27;20035;-67
2022/01/21 12:05:49;;;;;;;20.23;3.67;;;7.30;87.60;;;;;;5128921;27;20051;-67
2022/01/21 12:08:15;;;;;;;18.40;4.20;;;7.30;87.50;;;;;;5108008;28;20527;-67
2022/01/21 12:10:43;;;;;;;12.20;3.00;;;7.30;87.10;;;;;;5129170;27;20054;-67
2022/01/21 12:13:13;;;;;;;15.98;3.25;;;7.30;87.30;;;;;;5129623;27;20055;-67
2022/01/21 12:20:47;;;;;;;19.17;5.07;;;7.30;86.30;;;;;;5129622;27;20043;-66
2022/01/21 12:23:22;;;;;;;20.92;5.50;;;7.30;86.60;;;;;;5130101;27;20092;-67
2022/01/21 12:26:15;;;;;;;26.88;5.60;;;7.30;86.60;;;;;;5129775;27;20499;-67
2022/01/21 12:28:45;;;;;;;18.38;3.00;;;7.40;86.60;;;;;;5126269;27;20660;-66
2022/01/21 12:31:13;;;;;;;14.57;3.25;;;7.50;86.50;;;;;;5123364;27;20039;-67
2022/01/21 12:33:56;;;;;;;15.63;3.38;;;7.40;86.40;;;;;;5126580;27;20127;-67
2022/01/21 12:36:27;;;;;;;14.45;3.05;;;7.30;86.50;;;;;;5130666;27;20050;-65
2022/01/21 12:41:18;;;;;;;21.80;3.83;;;7.40;86.50;;;;;;5119167;27;20078;-67
2022/01/21 12:43:49;;;;;;;18.02;3.33;;;7.30;86.40;;;;;;5127332;27;20466;-67
2022/01/21 12:46:35;;;;;;;21.40;3.42;;;7.30;86.40;;;;;;5127203;27;20499;-67
2022/01/21 12:49:23;;;;;;;21.98;3.45;;;7.30;86.50;;;;;;5107282;28;20043;-67
2022/01/21 12:52:09;;;;;;;24.15;4.50;;;7.20;87.00;;;;;;5127489;27;20282;-67
2022/01/21 12:57:28;;;;;;;15.45;2.65;;;7.10;86.60;;;;;;5126577;28;20087;-66
2022/01/21 12:59:56;;;;;;;23.42;4.10;;;7.10;87.00;;;;;;5107512;28;21221;-67
2022/01/21 13:02:24;;;;;;;21.60;3.95;;;7.10;86.80;;;;;;5109459;28;20353;-68
2022/01/21 13:05:11;;;;;;;17.00;3.60;;;7.10;86.90;;;;;;5126463;28;20035;-67
2022/01/21 13:07:59;;;;;;;17.02;3.85;;;7.10;87.10;;;;;;5127254;28;20043;-67
2022/01/21 13:10:28;;;;;;;14.43;2.72;;;7.00;87.20;;;;;;5127693;28;20043;-67
2022/01/21 13:13:14;;;;;;;23.27;3.53;;;7.10;87.30;;;;;;5128508;28;20058;-67
2022/01/21 13:15:55;;;;;;;18.15;4.65;;;7.00;87.30;;;;;;5130413;27;20039;-66
2022/01/21 13:18:28;;;;;;;25.97;4.63;;;7.10;87.30;;;;;;5132720;27;20055;-67
2022/01/21 13:20:57;;;;;;;26.15;4.00;;;7.10;87.40;;;;;;5112081;27;20402;-66
2022/01/21 13:23:31;;;;;;;19.73;4.97;;;7.10;87.50;;;;;;5130486;27;20038;-69
2022/01/21 13:26:17;;;;;;;20.58;3.53;;;7.00;87.60;;;;;;5133090;27;20092;-65
2022/01/21 13:29:08;;;;;;;18.63;3.70;;;7.10;87.70;;;;;;5129244;27;20035;-65
2022/01/21 13:31:53;;;;;;;32.60;6.38;;;7.10;87.50;;;;;;5123018;27;20119;-66
2022/01/21 13:34:31;;;;;;;22.00;3.67;;;7.20;87.30;;;;;;5129911;27;20449;-64
2022/01/21 13:37:01;;;;;;;18.75;3.90;;;7.10;87.70;;;;;;5127809;27;20031;-64
2022/01/21 13:39:29;;;;;;;22.90;4.70;;;7.10;87.70;;;;;;5125790;27;20787;-65
2022/01/21 13:42:01;;;;;;;19.42;5.30;;;7.10;87.90;;;;;;5093412;27;20043;-64
2022/01/21 13:44:41;;;;;;;23.02;5.47;;;7.10;87.90;;;;;;5122735;27;20039;-64
2022/01/21 13:47:25;;;;;;;40.60;6.07;;;7.10;87.80;;;;;;5107279;28;20107;-64
2022/01/21 13:49:53;;;;;;;27.42;6.20;;;7.10;87.80;;;;;;5101145;27;20055;-64
2022/01/21 13:52:19;;;;;;;26.70;6.13;;;7.00;88.40;;;;;;5110329;27;20538;-64
2022/01/21 13:54:50;;;;;;;23.30;4.15;;;7.10;88.20;;;;;;5130879;27;20039;-64
2022/01/21 13:57:26;;;;;;;25.92;4.43;;;7.10;88.20;;;;;;5113059;27;20556;-63
2022/01/21 13:59:52;;;;;;;21.23;4.00;;;7.10;87.80;;;;;;5122615;27;20047;-63
2022/01/21 14:02:18;;;;;;;26.52;6.10;;;7.00;88.10;;;;;;5131506;27;20054;-64
2022/01/21 14:04:58;;;;;;;25.15;4.95;;;7.10;88.00;;;;;;5113871;27;20118;-64